Time;durP1;ratioP1;P1;durP2;ratioP2;P2;SDS_P1;SDS_P2;PMS_P1;PMS_P2;Temp;Humidity;BMP_temperature;BMP_pressure;BME280_temperature;BME280_humidity;BME280_pressure;Samples;Min_cycle;Max_cycle;Signal;HPM_P1;HPM_P2
2022/10/11 00:00:43;;;;;;;8.75;6.88;;;;;;;18.61;100.00;96771.94;4968082;28;20457;-40
2022/10/11 00:03:13;;;;;;;9.32;7.10;;;;;;;17.88;100.00;96781.66;4969332;28;20085;-41
2022/10/11 00:05:43;;;;;;;9.57;7.17;;;;;;;18.04;100.00;96783.34;4965390;28;20082;-47
2022/10/11 00:08:12;;;;;;;9.65;6.88;;;;;;;18.05;100.00;96781.50;4968269;28;20074;-43
2022/10/11 00:10:41;;;;;;;11.48;6.55;;;;;;;18.54;100.00;96775.56;4966169;28;20101;-40
2022/10/11 00:13:09;;;;;;;10.02;7.55;;;;;;;18.81;100.00;96788.25;4967372;28;20089;-40
2022/10/11 00:15:39;;;;;;;12.35;7.32;;;;;;;18.45;100.00;96788.19;4963176;28;20526;-42
2022/10/11 00:18:08;;;;;;;16.27;8.32;;;;;;;18.36;100.00;96798.13;4968375;28;20043;-44
2022/10/11 00:20:36;;;;;;;12.00;6.97;;;;;;;18.06;100.00;96802.63;4966266;28;20648;-43
2022/10/11 00:23:05;;;;;;;12.90;7.30;;;;;;;17.75;100.00;96798.25;4966836;28;20087;-45
2022/10/11 00:25:34;;;;;;;9.85;7.38;;;;;;;17.71;100.00;96791.63;4963036;28;20089;-41
2022/10/11 00:28:02;;;;;;;12.25;7.25;;;;;;;17.71;100.00;96799.63;4966126;28;20075;-43
2022/10/11 00:30:30;;;;;;;13.20;7.15;;;;;;;17.41;100.00;96806.75;4966561;28;20085;-41
2022/10/11 00:32:58;;;;;;;12.23;7.90;;;;;;;17.11;100.00;96807.63;4964864;28;20093;-44
2022/10/11 00:35:27;;;;;;;12.63;8.63;;;;;;;17.83;100.00;96810.72;4960689;28;20078;-42
2022/10/11 00:37:56;;;;;;;16.10;8.57;;;;;;;17.96;100.00;96800.25;4962721;28;20078;-47
2022/10/11 00:40:26;;;;;;;11.95;9.05;;;;;;;17.96;100.00;96802.94;4965992;28;20070;-42
2022/10/11 00:42:54;;;;;;;15.70;8.30;;;;;;;17.93;100.00;96805.13;4964391;28;20085;-42
2022/10/11 00:46:02;;;;;;;16.55;7.80;;;;;;;17.97;100.00;96809.91;4966615;28;20093;-42
2022/10/11 00:48:37;;;;;;;12.75;8.02;;;;;;;18.00;100.00;96809.56;4964441;28;20163;-42
2022/10/11 00:51:17;;;;;;;14.63;8.40;;;;;;;17.75;100.00;96806.25;4961025;28;20086;-47
2022/10/11 00:53:47;;;;;;;15.57;8.88;;;;;;;17.61;100.00;96811.56;4967923;28;20089;-45
2022/10/11 00:56:21;;;;;;;18.73;7.63;;;;;;;17.60;100.00;96808.06;4966526;28;20083;-43
2022/10/11 00:58:49;;;;;;;10.73;8.23;;;;;;;17.76;100.00;96810.63;4964479;28;20487;-40
2022/10/11 01:01:18;;;;;;;14.77;8.52;;;;;;;17.78;100.00;96816.59;4961712;28;20079;-44
2022/10/11 01:03:46;;;;;;;15.77;7.97;;;;;;;17.44;100.00;96816.19;4965959;28;20078;-41
2022/10/11 01:06:15;;;;;;;12.18;8.88;;;;;;;17.96;100.00;96810.94;4965480;28;20547;-43
2022/10/11 01:08:44;;;;;;;10.90;8.35;;;;;;;17.81;100.00;96809.25;4969359;28;20051;-44
2022/10/11 01:11:14;;;;;;;17.33;9.15;;;;;;;18.03;100.00;96813.69;4962106;28;20075;-42
2022/10/11 01:13:51;;;;;;;13.07;8.70;;;;;;;17.68;100.00;96810.66;4966583;28;20089;-45
2022/10/11 01:16:24;;;;;;;11.10;8.13;;;;;;;17.70;100.00;96810.47;4966100;28;20062;-47
2022/10/11 01:18:59;;;;;;;12.88;9.00;;;;;;;18.00;100.00;96822.06;4960866;28;20089;-43
2022/10/11 01:21:33;;;;;;;13.30;9.20;;;;;;;18.42;100.00;96813.44;4963870;28;20093;-41
2022/10/11 01:24:25;;;;;;;14.32;9.35;;;;;;;18.84;100.00;96814.59;4964934;28;20096;-43
2022/10/11 01:27:38;;;;;;;16.55;8.95;;;;;;;18.85;100.00;96810.06;4964750;28;21261;-42
2022/10/11 01:30:22;;;;;;;12.13;8.60;;;;;;;18.84;100.00;96811.91;4963986;28;20434;-43
2022/10/11 01:32:56;;;;;;;13.20;8.70;;;;;;;18.25;100.00;96810.13;4962756;28;20078;-48
2022/10/11 01:35:27;;;;;;;12.80;9.35;;;;;;;18.47;100.00;96818.19;4967264;28;20086;-42
2022/10/11 01:37:59;;;;;;;14.05;8.85;;;;;;;18.78;100.00;96812.66;4965632;28;20078;-42
2022/10/11 01:40:31;;;;;;;14.18;9.00;;;;;;;19.59;100.00;96810.63;4966017;28;20078;-42
2022/10/11 01:43:00;;;;;;;13.77;9.38;;;;;;;19.47;100.00;96805.97;4965331;28;20074;-44
2022/10/11 01:45:30;;;;;;;15.38;9.60;;;;;;;19.84;100.00;96807.56;4962963;28;20082;-42
2022/10/11 01:48:03;;;;;;;14.07;9.07;;;;;;;19.98;100.00;96808.50;4963399;28;20083;-42
2022/10/11 01:50:38;;;;;;;14.38;9.50;;;;;;;19.80;100.00;96812.47;4963941;28;20078;-42
2022/10/11 01:53:16;;;;;;;12.32;9.43;;;;;;;19.95;100.00;96809.69;4963649;28;20079;-44
2022/10/11 01:55:48;;;;;;;14.48;9.27;;;;;;;19.63;100.00;96809.25;4964222;28;20510;-42
2022/10/11 01:58:24;;;;;;;15.52;9.20;;;;;;;19.79;100.00;96810.84;4961887;28;20078;-42
2022/10/11 02:00:58;;;;;;;15.93;9.13;;;;;;;19.95;100.00;96808.88;4959741;28;20089;-46
2022/10/11 02:03:34;;;;;;;11.90;8.80;;;;;;;19.84;100.00;96811.06;4962535;28;20153;-46
2022/10/11 02:06:07;;;;;;;13.07;8.70;;;;;;;19.71;100.00;96816.31;4963730;28;20086;-47
2022/10/11 02:08:41;;;;;;;10.38;8.75;;;;;;;19.89;100.00;96816.69;4964006;28;20556;-42
2022/10/11 02:11:14;;;;;;;14.43;8.45;;;;;;;20.09;100.00;96805.25;4964156;28;20098;-41
2022/10/11 02:13:46;;;;;;;14.05;9.07;;;;;;;19.90;100.00;96804.94;4964067;28;20079;-42
2022/10/11 02:16:19;;;;;;;13.85;9.35;;;;;;;20.02;100.00;96809.75;4965619;28;20078;-46
2022/10/11 02:18:50;;;;;;;11.90;8.68;;;;;;;20.09;100.00;96800.72;4964459;28;20082;-42
2022/10/11 02:21:19;;;;;;;;;;;;;;;20.21;100.00;96794.84;4965876;28;20082;-41
2022/10/11 02:23:50;;;;;;;11.93;8.60;;;;;;;19.34;100.00;96802.19;4963279;28;19961;-48
2022/10/11 02:26:20;;;;;;;14.77;8.50;;;;;;;20.05;100.00;96798.66;4963910;28;20086;-43
2022/10/11 02:28:49;;;;;;;16.27;9.13;;;;;;;19.86;100.00;96802.84;4962430;28;20087;-43
2022/10/11 02:31:19;;;;;;;21.27;9.63;;;;;;;19.90;100.00;96804.94;4962740;28;20109;-45
2022/10/11 02:33:52;;;;;;;13.77;9.48;;;;;;;19.39;100.00;96810.44;4963669;28;20093;-44
2022/10/11 02:36:25;;;;;;;12.73;9.15;;;;;;;19.66;100.00;96810.72;4962158;28;20526;-44
2022/10/11 02:38:57;;;;;;;16.15;9.10;;;;;;;19.98;100.00;96809.31;4964043;28;20722;-42
2022/10/11 02:41:29;;;;;;;14.75;9.30;;;;;;;19.90;100.00;96810.28;4965682;28;20537;-40
2022/10/11 02:44:00;;;;;;;14.45;9.48;;;;;;;19.34;100.00;96812.03;4964502;28;22021;-48
2022/10/11 02:46:30;;;;;;;14.30;9.68;;;;;;;19.51;100.00;96812.59;4964756;28;20085;-47
2022/10/11 02:48:59;;;;;;;17.10;9.52;;;;;;;20.11;100.00;96809.41;4963765;28;20074;-47
2022/10/11 02:51:30;;;;;;;18.52;9.05;;;;;;;20.28;100.00;96804.56;4964527;28;20079;-44
2022/10/11 02:53:59;;;;;;;16.15;9.50;;;;;;;20.18;100.00;96800.59;4962745;28;20148;-48
2022/10/11 02:56:27;;;;;;;14.23;9.25;;;;;;;20.18;100.00;96806.78;4965931;28;20510;-40
2022/10/11 02:58:55;;;;;;;14.43;9.57;;;;;;;20.36;100.00;96807.06;4962790;28;20098;-42
2022/10/11 03:01:24;;;;;;;18.27;10.10;;;;;;;20.44;100.00;96821.34;4961907;28;20466;-47
2022/10/11 03:03:54;;;;;;;14.95;9.55;;;;;;;20.42;100.00;96818.03;4960337;28;20086;-44
2022/10/11 03:06:22;;;;;;;16.02;9.75;;;;;;;20.22;100.00;96808.03;4963427;28;20112;-45
2022/10/11 03:08:50;;;;;;;16.25;9.57;;;;;;;19.77;100.00;96814.72;4959513;28;20481;-42
2022/10/11 03:11:19;;;;;;;16.20;9.13;;;;;;;18.67;100.00;96823.81;4962794;28;20086;-42
2022/10/11 03:13:47;;;;;;;14.27;8.85;;;;;;;19.61;100.00;96813.94;4963838;28;20924;-47
2022/10/11 03:16:15;;;;;;;14.32;9.32;;;;;;;20.05;100.00;96818.22;4968059;28;20079;-42
2022/10/11 03:18:43;;;;;;;14.30;9.60;;;;;;;20.05;100.00;96820.91;4965846;28;20101;-45
2022/10/11 03:21:13;;;;;;;15.60;9.55;;;;;;;20.19;100.00;96815.63;4964209;28;20322;-42
2022/10/11 03:23:42;;;;;;;12.57;9.20;;;;;;;19.73;100.00;96822.31;4961638;28;20082;-42
2022/10/11 03:26:10;;;;;;;13.50;9.32;;;;;;;19.45;100.00;96823.06;4962141;28;20090;-42
2022/10/11 03:28:38;;;;;;;13.55;9.07;;;;;;;20.01;100.00;96819.63;4961700;28;20082;-45
2022/10/11 03:31:07;;;;;;;17.30;9.40;;;;;;;20.15;100.00;96826.72;4961967;28;20572;-42
2022/10/11 03:33:35;;;;;;;12.93;9.02;;;;;;;20.03;100.00;96824.81;4962199;28;20133;-46
2022/10/11 03:36:03;;;;;;;12.63;9.38;;;;;;;20.10;100.00;96820.31;4965068;28;20094;-42
2022/10/11 03:38:33;;;;;;;12.48;8.70;;;;;;;19.99;100.00;96824.34;4966123;28;20109;-44
2022/10/11 03:41:02;;;;;;;15.53;9.30;;;;;;;20.20;100.00;96830.66;4963584;28;20082;-43
2022/10/11 03:43:30;;;;;;;12.02;8.82;;;;;;;19.63;100.00;96844.03;4962886;28;20069;-44
2022/10/11 03:45:58;;;;;;;13.27;8.85;;;;;;;19.54;100.00;96844.31;4967508;28;20087;-42
2022/10/11 03:48:27;;;;;;;12.30;8.98;;;;;;;19.18;100.00;96856.72;4968274;28;20470;-42
2022/10/11 03:50:55;;;;;;;15.07;8.68;;;;;;;19.76;100.00;96850.53;4964773;28;20086;-44
2022/10/11 03:53:23;;;;;;;13.05;8.25;;;;;;;18.96;100.00;96863.88;4966994;28;20089;-42
2022/10/11 03:55:54;;;;;;;14.63;8.65;;;;;;;20.03;100.00;96854.25;4967347;28;20070;-43
2022/10/11 03:58:22;;;;;;;12.82;8.20;;;;;;;19.42;100.00;96866.22;4965947;28;20093;-47
2022/10/11 04:00:52;;;;;;;15.85;8.13;;;;;;;20.00;100.00;96860.81;4967774;28;20085;-46
2022/10/11 04:03:20;;;;;;;9.90;7.73;;;;;;;19.99;100.00;96861.00;4966328;28;20526;-42
2022/10/11 04:05:49;;;;;;;12.40;7.20;;;;;;;19.96;100.00;96867.59;4967409;28;20093;-42
2022/10/11 04:08:17;;;;;;;10.13;7.40;;;;;;;19.20;100.00;96876.09;4964032;28;20541;-46
2022/10/11 04:10:45;;;;;;;14.35;7.40;;;;;;;19.75;100.00;96864.91;4966160;28;20097;-48
2022/10/11 04:13:15;;;;;;;11.90;7.53;;;;;;;19.59;100.00;96863.31;4966021;28;20373;-46
2022/10/11 04:15:43;;;;;;;10.20;7.18;;;;;;;20.35;100.00;96864.38;4967911;28;20078;-45
2022/10/11 04:18:12;;;;;;;13.57;7.43;;;;;;;20.17;100.00;96857.88;4963197;28;20101;-45
2022/10/11 04:20:40;;;;;;;11.50;7.05;;;;;;;20.53;100.00;96857.69;4966386;28;20477;-48
2022/10/11 04:23:08;;;;;;;10.70;7.32;;;;;;;20.14;100.00;96857.22;4966761;28;20085;-46
2022/10/11 04:25:38;;;;;;;12.85;7.80;;;;;;;20.71;100.00;96859.84;4967621;28;20090;-41
2022/10/11 04:28:07;;;;;;;11.27;7.05;;;;;;;20.66;100.00;96860.44;4966324;28;20085;-43
2022/10/11 04:30:37;;;;;;;12.97;7.30;;;;;;;20.31;100.00;96859.59;4967362;28;20541;-42
2022/10/11 04:33:05;;;;;;;11.07;7.13;;;;;;;20.29;100.00;96861.63;4964234;28;20070;-44
2022/10/11 04:35:33;;;;;;;13.50;8.65;;;;;;;19.84;100.00;96861.09;4966597;28;20085;-43
2022/10/11 04:38:02;;;;;;;12.02;9.13;;;;;;;20.41;100.00;96857.41;4965072;28;20447;-40
2022/10/11 04:40:30;;;;;;;16.02;8.90;;;;;;;20.34;100.00;96859.22;4968616;28;20096;-44
2022/10/11 04:43:08;;;;;;;12.60;8.85;;;;;;;20.08;100.00;96867.88;4966002;28;20106;-43
2022/10/11 04:45:38;;;;;;;12.77;8.88;;;;;;;20.48;100.00;96868.97;4965483;28;20078;-42
2022/10/11 04:48:06;;;;;;;12.07;8.45;;;;;;;20.69;100.00;96868.09;4964757;28;21928;-44
2022/10/11 04:50:35;;;;;;;14.82;8.57;;;;;;;20.78;100.00;96860.69;4964469;28;20078;-45
2022/10/11 04:53:03;;;;;;;15.95;8.38;;;;;;;19.79;100.00;96867.03;4966157;28;20517;-40
2022/10/11 04:55:31;;;;;;;13.25;8.82;;;;;;;20.27;100.00;96863.69;4966060;28;20078;-41
2022/10/11 04:58:01;;;;;;;15.32;7.90;;;;;;;20.67;100.00;96862.09;4963298;28;20085;-43
2022/10/11 05:00:29;;;;;;;14.38;7.53;;;;;;;20.24;100.00;96867.59;4966095;28;20078;-46
2022/10/11 05:02:58;;;;;;;11.50;8.00;;;;;;;20.76;100.00;96865.47;4964249;28;20089;-47
2022/10/11 05:05:27;;;;;;;10.43;7.47;;;;;;;21.00;100.00;96861.44;4967555;28;20075;-44
2022/10/11 05:07:55;;;;;;;15.75;8.23;;;;;;;21.21;100.00;96871.22;4967776;28;20070;-43
2022/10/11 05:10:23;;;;;;;14.50;8.32;;;;;;;21.15;100.00;96870.16;4966324;28;20082;-42
2022/10/11 05:12:52;;;;;;;13.48;8.35;;;;;;;21.26;100.00;96872.22;4966020;28;20447;-42
2022/10/11 05:15:20;;;;;;;9.88;7.63;;;;;;;21.30;100.00;96869.97;4962397;28;20093;-42
2022/10/11 05:17:48;;;;;;;12.65;8.00;;;;;;;21.41;100.00;96866.75;4965856;28;20488;-41
2022/10/11 05:20:19;;;;;;;13.93;8.00;;;;;;;21.26;100.00;96874.09;4965289;28;20074;-45
2022/10/11 05:22:47;;;;;;;11.00;8.07;;;;;;;21.13;100.00;96876.72;4966034;28;20686;-45
2022/10/11 05:25:15;;;;;;;14.02;8.27;;;;;;;20.98;100.00;96871.53;4965491;28;20093;-42
2022/10/11 05:27:44;;;;;;;10.10;8.00;;;;;;;21.16;100.00;96865.59;4966243;28;20082;-45
2022/10/11 05:30:12;;;;;;;14.13;7.50;;;;;;;21.28;100.00;96866.69;4963162;28;20094;-46
2022/10/11 05:32:41;;;;;;;12.00;7.97;;;;;;;21.36;100.00;96871.88;4966064;28;20078;-42
2022/10/11 05:35:09;;;;;;;9.40;7.35;;;;;;;21.48;100.00;96869.47;4965001;28;20085;-42
2022/10/11 05:37:39;;;;;;;9.10;7.38;;;;;;;21.35;100.00;96872.94;4964317;28;20156;-48
2022/10/11 05:40:09;;;;;;;13.90;7.30;;;;;;;21.40;100.00;96866.94;4963496;28;20377;-43
2022/10/11 05:42:38;;;;;;;10.32;7.05;;;;;;;21.09;100.00;96869.13;4962988;28;20082;-42
2022/10/11 05:45:07;;;;;;;11.73;6.80;;;;;;;20.47;100.00;96878.03;4964225;28;20097;-42
2022/10/11 05:47:35;;;;;;;10.80;6.50;;;;;;;20.45;100.00;96879.28;4965191;28;20069;-42
2022/10/11 05:50:04;;;;;;;10.07;6.78;;;;;;;21.19;100.00;96881.28;4965922;28;20105;-42
2022/10/11 05:52:32;;;;;;;9.40;7.00;;;;;;;21.29;100.00;96890.63;4967070;28;20112;-40
2022/10/11 05:55:02;;;;;;;10.27;7.35;;;;;;;21.45;100.00;96896.69;4963872;28;20081;-41
2022/10/11 05:57:31;;;;;;;14.45;7.55;;;;;;;21.49;100.00;96896.06;4965096;28;20085;-42
2022/10/11 05:59:59;;;;;;;11.68;6.25;;;;;;;21.22;100.00;96894.31;4965125;28;20066;-44
2022/10/11 06:02:27;;;;;;;11.55;6.40;;;;;;;21.60;100.00;96904.56;4962734;28;20081;-39
2022/10/11 06:04:56;;;;;;;10.05;6.25;;;;;;;21.31;100.00;96901.97;4959888;28;20063;-42
2022/10/11 06:07:24;;;;;;;9.60;6.57;;;;;;;20.90;100.00;96911.91;4965837;28;20073;-41
2022/10/11 06:09:53;;;;;;;9.32;6.25;;;;;;;21.35;100.00;96902.44;4967328;28;20090;-43
2022/10/11 06:12:22;;;;;;;7.50;6.20;;;;;;;21.43;100.00;96902.25;4963191;28;20471;-42
2022/10/11 06:14:51;;;;;;;9.63;6.20;;;;;;;21.30;100.00;96900.34;4964368;28;20469;-46
2022/10/11 06:17:19;;;;;;;10.27;6.25;;;;;;;21.02;100.00;96907.63;4963284;28;20378;-48
2022/10/11 06:19:47;;;;;;;9.80;6.35;;;;;;;21.12;100.00;96907.28;4965593;28;20544;-44
2022/10/11 06:22:15;;;;;;;7.13;6.15;;;;;;;20.91;100.00;96918.94;4961210;28;20090;-43
2022/10/11 06:24:44;;;;;;;14.27;6.68;;;;;;;21.02;100.00;96919.19;4963461;28;20073;-42
2022/10/11 06:27:13;;;;;;;10.82;6.43;;;;;;;21.27;100.00;96918.69;4960390;28;20118;-44
2022/10/11 06:29:42;;;;;;;12.02;6.57;;;;;;;21.39;100.00;96917.09;4964072;28;20529;-42
2022/10/11 06:32:12;;;;;;;8.97;6.43;;;;;;;20.69;100.00;96923.56;4960371;28;20082;-41
2022/10/11 06:34:40;;;;;;;8.68;6.32;;;;;;;21.59;100.00;96917.16;4981037;28;20066;-41
2022/10/11 06:37:08;;;;;;;9.57;5.97;;;;;;;20.66;100.00;96921.28;4962972;28;20078;-42
2022/10/11 06:39:37;;;;;;;9.65;6.68;;;;;;;20.94;100.00;96931.94;4966878;28;20619;-42
2022/10/11 06:42:05;;;;;;;11.45;6.50;;;;;;;21.38;100.00;96928.88;4967534;28;20089;-44
2022/10/11 06:44:33;;;;;;;9.50;6.78;;;;;;;21.23;100.00;96934.38;4968688;28;20071;-44
2022/10/11 06:47:03;;;;;;;9.23;6.97;;;;;;;21.70;100.00;96935.34;4967251;28;20458;-46
2022/10/11 06:49:31;;;;;;;13.40;6.63;;;;;;;21.55;100.00;96927.47;4966189;28;20078;-42
2022/10/11 06:52:00;;;;;;;7.78;6.35;;;;;;;22.22;100.00;96930.28;4965687;28;20497;-49
2022/10/11 06:54:28;;;;;;;15.23;6.90;;;;;;;22.17;100.00;96938.97;4964294;28;20098;-42
2022/10/11 06:56:56;;;;;;;12.23;6.97;;;;;;;22.22;100.00;96933.78;4965148;28;20470;-46
2022/10/11 06:59:25;;;;;;;8.50;6.00;;;;;;;22.51;100.00;96940.63;4963877;28;20077;-42
2022/10/11 07:01:53;;;;;;;9.40;6.22;;;;;;;22.82;100.00;96941.00;4966476;28;20084;-44
2022/10/11 07:04:23;;;;;;;8.60;6.75;;;;;;;22.81;100.00;96942.00;4968554;28;20612;-46
2022/10/11 07:06:51;;;;;;;9.63;6.60;;;;;;;22.60;100.00;96943.06;4969361;28;20097;-45
2022/10/11 07:09:19;;;;;;;11.85;7.20;;;;;;;22.05;100.00;96949.44;4967808;28;20505;-41
2022/10/11 07:11:48;;;;;;;18.60;7.10;;;;;;;22.58;100.00;96948.69;4965857;28;20545;-42
2022/10/11 07:14:16;;;;;;;12.00;6.90;;;;;;;23.11;100.00;96962.03;4964401;28;20078;-41
2022/10/11 07:16:44;;;;;;;12.00;6.95;;;;;;;22.34;100.00;96952.81;4972789;28;20070;-41
2022/10/11 07:19:12;;;;;;;8.52;6.63;;;;;;;22.68;100.00;96945.56;4971734;28;20135;-42
2022/10/11 07:21:42;;;;;;;10.73;7.15;;;;;;;23.51;100.00;96958.38;4967822;28;20074;-43
2022/10/11 07:24:10;;;;;;;11.07;7.23;;;;;;;23.55;100.00;96954.22;4969123;28;20074;-44
2022/10/11 07:26:39;;;;;;;13.88;6.97;;;;;;;23.28;100.00;96966.97;4971366;28;20090;-44
2022/10/11 07:29:08;;;;;;;12.13;6.45;;;;;;;23.54;100.00;96966.03;4968630;28;20074;-42
2022/10/11 07:31:37;;;;;;;8.70;6.25;;;;;;;23.22;100.00;96966.75;4968068;28;20070;-47
2022/10/11 07:34:05;;;;;;;10.27;5.90;;;;;;;23.21;100.00;96972.34;4970478;28;20065;-45
2022/10/11 07:36:34;;;;;;;10.02;6.78;;;;;;;23.78;100.00;96969.84;4969026;28;20073;-44
2022/10/11 07:39:06;;;;;;;10.00;6.13;;;;;;;23.79;100.00;96966.97;4970653;28;20090;-44
2022/10/11 07:41:35;;;;;;;33.10;22.83;;;;;;;23.92;100.00;96974.16;4969888;28;20075;-41
2022/10/11 07:44:07;;;;;;;9.93;6.35;;;;;;;23.80;100.00;96976.69;4971322;28;20209;-42
2022/10/11 07:46:36;;;;;;;10.68;5.40;;;;;;;23.63;100.00;96976.31;4972986;28;20078;-43
2022/10/11 07:49:04;;;;;;;12.27;5.72;;;;;;;23.19;100.00;96979.81;4963434;28;20090;-45
2022/10/11 07:51:33;;;;;;;10.27;5.60;;;;;;;23.35;100.00;96975.84;4971986;28;20086;-45
2022/10/11 07:54:01;;;;;;;11.63;6.03;;;;;;;23.59;100.00;96975.09;4968022;28;20082;-44
2022/10/11 07:56:37;;;;;;;9.73;5.18;;;;;;;23.87;100.00;96973.97;4971464;28;20463;-46
2022/10/11 07:59:05;;;;;;;11.32;5.70;;;;;;;23.95;100.00;96976.41;4971653;28;20093;-46
2022/10/11 08:01:33;;;;;;;7.47;5.03;;;;;;;23.50;100.00;96978.25;4968661;28;20089;-42
2022/10/11 08:04:02;;;;;;;10.90;5.40;;;;;;;23.63;100.00;96975.50;4966581;28;20070;-45
2022/10/11 08:06:31;;;;;;;10.13;5.00;;;;;;;23.76;100.00;96983.56;4965360;28;20542;-41
2022/10/11 08:09:00;;;;;;;11.00;4.82;;;;;;;24.03;100.00;96983.41;4972140;28;20092;-43
2022/10/11 08:11:30;;;;;;;7.75;4.78;;;;;;;24.13;100.00;96986.44;4975275;28;20078;-43
2022/10/11 08:14:00;;;;;;;15.68;7.25;;;;;;;24.01;100.00;96983.59;4971840;28;20082;-42
2022/10/11 08:16:28;;;;;;;11.82;5.43;;;;;;;23.55;100.00;96983.84;4970498;28;20078;-43
2022/10/11 08:18:57;;;;;;;8.43;4.93;;;;;;;24.01;100.00;96983.59;4969035;28;20478;-45
2022/10/11 08:21:25;;;;;;;8.02;5.20;;;;;;;24.24;100.00;96983.03;4970181;28;20474;-41
2022/10/11 08:23:54;;;;;;;12.68;5.65;;;;;;;23.99;100.00;96979.50;4969801;28;20074;-42
2022/10/11 08:26:23;;;;;;;15.48;6.70;;;;;;;23.97;100.00;96985.09;4969458;28;20522;-43
2022/10/11 08:28:51;;;;;;;10.65;6.07;;;;;;;24.53;100.00;96983.47;4970685;28;20121;-44
2022/10/11 08:31:21;;;;;;;6.93;4.90;;;;;;;24.32;100.00;96990.03;4963498;28;20082;-47
2022/10/11 08:33:49;;;;;;;10.77;6.57;;;;;;;24.29;100.00;96983.19;4971037;28;20066;-45
2022/10/11 08:36:18;;;;;;;13.40;5.63;;;;;;;24.06;100.00;96989.19;4966625;28;20090;-47
2022/10/11 08:38:46;;;;;;;8.02;5.20;;;;;;;23.90;100.00;96987.00;4970527;28;20087;-42
2022/10/11 08:41:28;;;;;;;11.40;7.45;;;;;;;24.34;100.00;96986.09;4965910;28;20093;-48
2022/10/11 08:44:05;;;;;;;10.65;6.50;;;;;;;24.21;100.00;96993.44;4965536;28;20101;-42
2022/10/11 08:46:36;;;;;;;9.85;5.18;;;;;;;24.59;100.00;96988.81;4964271;28;20074;-43
2022/10/11 08:49:08;;;;;;;11.63;5.30;;;;;;;25.06;100.00;96988.38;4969787;28;20081;-44
2022/10/11 08:51:40;;;;;;;8.38;5.47;;;;;;;24.63;100.00;96992.72;4970143;28;20074;-42
2022/10/11 08:54:14;;;;;;;9.80;5.57;;;;;;;23.82;100.00;96998.03;4965941;28;20476;-44
2022/10/11 08:56:42;;;;;;;12.90;7.35;;;;;;;24.52;100.00;96992.63;4971262;28;20059;-43
2022/10/11 08:59:21;;;;;;;10.88;5.60;;;;;;;24.69;100.00;96993.72;4964510;28;20082;-46
2022/10/11 09:01:54;;;;;;;10.27;5.50;;;;;;;25.06;100.00;97004.59;4965080;28;20078;-42
2022/10/11 09:04:23;;;;;;;9.43;4.80;;;;;;;24.70;100.00;96998.06;4965235;28;20090;-44
2022/10/11 09:06:57;;;;;;;8.15;5.50;;;;;;;24.61;100.00;97002.09;4967820;28;20078;-49
2022/10/11 09:09:38;;;;;;;;;;;;;;;24.67;100.00;96997.66;4963694;28;20093;-42
2022/10/11 09:12:13;;;;;;;10.00;6.35;;;;;;;24.66;100.00;96996.03;4970585;28;19923;-41
2022/10/11 09:14:53;;;;;;;10.93;7.22;;;;;;;24.96;100.00;96998.88;4971447;28;20086;-44
2022/10/11 09:17:33;;;;;;;12.18;6.05;;;;;;;24.59;100.00;97002.28;4968230;28;20093;-43
2022/10/11 09:20:23;;;;;;;15.82;9.10;;;;;;;24.96;100.00;96999.69;4973114;28;20094;-43
2022/10/11 09:22:53;;;;;;;;;;;;;;;25.87;100.00;96995.38;4944698;28;20086;-43
2022/10/11 09:25:25;;;;;;;9.70;6.15;;;;;;;25.30;100.00;96995.63;4969470;28;19966;-45
2022/10/11 09:28:01;;;;;;;12.63;6.05;;;;;;;25.07;100.00;97006.22;4966704;28;20074;-45
2022/10/11 09:30:32;;;;;;;11.57;5.78;;;;;;;25.26;100.00;96994.44;4970636;28;20074;-41
2022/10/11 09:33:11;;;;;;;9.60;5.90;;;;;;;24.71;100.00;97001.56;4968971;28;20086;-40
2022/10/11 09:35:42;;;;;;;15.18;7.28;;;;;;;25.35;100.00;96992.25;4968703;28;20082;-42
2022/10/11 09:38:14;;;;;;;13.57;5.72;;;;;;;25.17;100.00;96994.94;4961885;28;20062;-45
2022/10/11 09:40:51;;;;;;;10.40;5.63;;;;;;;25.99;96.32;96990.84;4967767;28;20162;-43
2022/10/11 09:43:19;;;;;;;13.75;6.05;;;;;;;25.97;94.79;96994.81;4969972;28;20086;-43
2022/10/11 09:45:48;;;;;;;9.60;5.63;;;;;;;26.15;95.81;96996.63;4970919;28;20082;-42
2022/10/11 09:48:20;;;;;;;9.50;5.43;;;;;;;25.32;100.00;97001.63;4969970;28;20079;-43
2022/10/11 09:50:49;;;;;;;10.20;6.13;;;;;;;26.35;89.80;96991.75;4968160;28;20081;-42
2022/10/11 09:53:18;;;;;;;12.50;6.22;;;;;;;25.61;99.72;96996.50;4966186;28;20089;-46
2022/10/11 09:55:51;;;;;;;12.00;6.03;;;;;;;26.19;95.47;96982.44;4968829;28;20207;-42
2022/10/11 09:58:26;;;;;;;13.15;5.82;;;;;;;25.35;100.00;96992.25;4966666;28;20715;-49
2022/10/11 10:00:59;;;;;;;10.30;5.07;;;;;;;25.72;100.00;96989.53;4964216;28;20089;-44
2022/10/11 10:03:37;;;;;;;10.95;5.28;;;;;;;25.89;96.10;96989.75;4964996;28;20066;-46
2022/10/11 10:06:09;;;;;;;10.40;5.63;;;;;;;26.23;88.39;96990.91;4962540;28;20082;-46
2022/10/11 10:08:37;;;;;;;8.93;5.80;;;;;;;26.38;87.52;96993.19;4967075;28;20081;-45
2022/10/11 10:11:07;;;;;;;11.15;5.35;;;;;;;26.36;85.12;96993.44;4968378;28;20091;-41
2022/10/11 10:13:44;;;;;;;14.30;5.57;;;;;;;26.64;86.46;96991.97;4968475;28;20525;-43
2022/10/11 10:16:23;;;;;;;10.80;5.80;;;;;;;25.60;97.81;96997.53;4964895;28;20186;-49
2022/10/11 10:18:55;;;;;;;10.02;5.95;;;;;;;25.55;100.00;96992.00;4964572;28;20074;-45
2022/10/11 10:21:27;;;;;;;12.45;6.47;;;;;;;25.19;100.00;97000.94;4967936;28;20066;-42
2022/10/11 10:23:58;;;;;;;10.93;5.63;;;;;;;25.20;100.00;96997.22;4967976;28;20066;-42
2022/10/11 10:26:27;;;;;;;11.18;6.38;;;;;;;24.97;100.00;97004.03;4966245;28;20075;-43
2022/10/11 10:29:02;;;;;;;10.77;5.75;;;;;;;25.22;100.00;96992.38;4963834;28;20083;-41
2022/10/11 10:31:35;;;;;;;13.05;6.00;;;;;;;25.91;98.09;96996.59;4966308;28;20474;-44
2022/10/11 10:34:27;;;;;;;10.68;5.85;;;;;;;26.41;91.04;96992.72;4966400;28;20090;-46
2022/10/11 10:36:57;;;;;;;14.00;6.07;;;;;;;26.76;85.25;96992.78;4966596;28;20489;-41
2022/10/11 10:39:29;;;;;;;10.82;5.90;;;;;;;26.30;81.68;96998.94;4966648;28;20150;-43
2022/10/11 10:42:09;;;;;;;11.20;5.70;;;;;;;26.17;83.28;96991.84;4967190;28;20067;-45
2022/10/11 10:44:37;;;;;;;13.77;5.80;;;;;;;26.53;83.06;96993.59;4966903;28;20078;-42
2022/10/11 10:47:10;;;;;;;9.80;5.65;;;;;;;26.54;78.57;96992.53;4966528;28;20078;-46
2022/10/11 10:49:44;;;;;;;12.90;5.85;;;;;;;26.48;83.10;97001.59;4967624;28;20070;-42
2022/10/11 10:52:37;;;;;;;13.77;6.45;;;;;;;26.16;85.73;96991.00;4966318;28;20087;-42
2022/10/11 10:55:11;;;;;;;11.55;5.82;;;;;;;26.31;85.35;96985.16;4964688;28;20596;-45
2022/10/11 10:57:49;;;;;;;13.25;5.68;;;;;;;26.62;86.43;96988.66;4964592;28;20430;-44
2022/10/11 11:00:20;;;;;;;11.75;5.85;;;;;;;27.39;80.79;96986.69;4969615;28;20086;-42
2022/10/11 11:02:54;;;;;;;12.32;5.40;;;;;;;27.59;73.18;96980.81;4964573;28;20454;-42
2022/10/11 11:05:33;;;;;;;12.38;6.00;;;;;;;27.58;72.10;96984.59;4965666;28;20090;-42
2022/10/11 11:08:08;;;;;;;6.97;5.00;;;;;;;26.64;76.71;96984.69;4968757;28;20061;-44
2022/10/11 11:10:39;;;;;;;9.38;5.57;;;;;;;27.23;78.21;96978.47;4964459;28;20529;-41
2022/10/11 11:13:18;;;;;;;10.27;6.18;;;;;;;27.44;72.73;96983.22;4967488;28;20081;-48
2022/10/11 11:15:48;;;;;;;;;;;;;;;27.63;70.45;96981.16;4965997;28;20081;-43
2022/10/11 11:18:27;;;;;;;11.65;5.47;;;;;;;27.86;67.11;96978.41;4968230;28;19961;-46
2022/10/11 11:21:08;;;;;;;10.10;5.60;;;;;;;27.62;66.87;96980.34;4969149;28;20074;-43
2022/10/11 11:23:41;;;;;;;15.73;6.10;;;;;;;27.65;64.23;96974.44;4968316;28;20089;-42
2022/10/11 11:26:14;;;;;;;9.82;5.63;;;;;;;28.08;63.51;96975.84;4965434;28;20085;-45
2022/10/11 11:28:49;;;;;;;10.63;5.75;;;;;;;27.59;71.46;96975.41;4966489;28;20112;-42
2022/10/11 11:31:35;;;;;;;10.82;5.63;;;;;;;27.83;63.96;96976.19;4967309;28;20086;-42
2022/10/11 11:34:12;;;;;;;12.88;5.35;;;;;;;27.51;67.53;96973.09;4964896;28;20544;-41
2022/10/11 11:36:44;;;;;;;8.13;5.10;;;;;;;27.10;75.02;96971.38;4964200;28;20086;-42
2022/10/11 11:39:17;;;;;;;12.57;5.60;;;;;;;27.55;66.17;96971.53;4961340;28;20478;-45